<?xml version="1.0" encoding="UTF-8" standalone="no" ?>
<gpx xmlns="http://www.topografix.com/GPX/1/1" xmlns:xsi="http://www.w3.org/2001/XMLSchema-instance" xsi:schemaLocation="http://www.topografix.com/GPX/1/1 http://www.topografix.com/GPX/1/1/gpx.xsd" version="1.1" creator="VisuGPX - https://www.visugpx.com">
  <metadata>
    <name>2021-04-18 circuit papiermuhle par le parking de berwald..</name>
  </metadata>
  <trk>
    <name><![CDATA[2021-04-18 10:19:47]]></name>
    <trkseg>
      <trkpt lat="49.10858" lon="6.73372">
        <ele>275.56</ele>
        <time>2021-04-18T06:27:15Z</time>
      </trkpt>
      <trkpt lat="49.10857" lon="6.73372">
        <ele>236.62</ele>
        <time>2021-04-18T06:27:22Z</time>
      </trkpt>
      <trkpt lat="49.10857" lon="6.73372">
        <ele>237.1</ele>
        <time>2021-04-18T06:27:23Z</time>
      </trkpt>
      <trkpt lat="49.10857" lon="6.7337">
        <ele>237.1</ele>
        <time>2021-04-18T06:27:40Z</time>
      </trkpt>
      <trkpt lat="49.10851" lon="6.73367">
        <ele>237.1</ele>
        <time>2021-04-18T06:27:54Z</time>
      </trkpt>
      <trkpt lat="49.10845" lon="6.73354">
        <ele>237.1</ele>
        <time>2021-04-18T06:28:08Z</time>
      </trkpt>
      <trkpt lat="49.1084" lon="6.73345">
        <ele>237.58</ele>
        <time>2021-04-18T06:28:22Z</time>
      </trkpt>
      <trkpt lat="49.10831" lon="6.73338">
        <ele>238.06</ele>
        <time>2021-04-18T06:28:38Z</time>
      </trkpt>
      <trkpt lat="49.1083" lon="6.73333">
        <ele>237.58</ele>
        <time>2021-04-18T06:28:57Z</time>
      </trkpt>
      <trkpt lat="49.10829" lon="6.73332">
        <ele>237.58</ele>
        <time>2021-04-18T06:29:16Z</time>
      </trkpt>
      <trkpt lat="49.10833" lon="6.73319">
        <ele>237.58</ele>
        <time>2021-04-18T06:29:32Z</time>
      </trkpt>
      <trkpt lat="49.10833" lon="6.73323">
        <ele>238.06</ele>
        <time>2021-04-18T06:29:55Z</time>
      </trkpt>
      <trkpt lat="49.10836" lon="6.73325">
        <ele>237.58</ele>
        <time>2021-04-18T06:30:22Z</time>
      </trkpt>
      <trkpt lat="49.10834" lon="6.73318">
        <ele>238.06</ele>
        <time>2021-04-18T06:30:54Z</time>
      </trkpt>
      <trkpt lat="49.10835" lon="6.73322">
        <ele>237.1</ele>
        <time>2021-04-18T06:31:18Z</time>
      </trkpt>
      <trkpt lat="49.10837" lon="6.73328">
        <ele>237.1</ele>
        <time>2021-04-18T06:31:47Z</time>
      </trkpt>
      <trkpt lat="49.1084" lon="6.73328">
        <ele>237.1</ele>
        <time>2021-04-18T06:32:08Z</time>
      </trkpt>
      <trkpt lat="49.10845" lon="6.73323">
        <ele>237.1</ele>
        <time>2021-04-18T06:32:44Z</time>
      </trkpt>
      <trkpt lat="49.10847" lon="6.73327">
        <ele>237.1</ele>
        <time>2021-04-18T06:33:15Z</time>
      </trkpt>
      <trkpt lat="49.10844" lon="6.7333">
        <ele>237.1</ele>
        <time>2021-04-18T06:33:52Z</time>
      </trkpt>
      <trkpt lat="49.10844" lon="6.73326">
        <ele>237.58</ele>
        <time>2021-04-18T06:34:16Z</time>
      </trkpt>
      <trkpt lat="49.10842" lon="6.73323">
        <ele>236.62</ele>
        <time>2021-04-18T06:34:40Z</time>
      </trkpt>
      <trkpt lat="49.1084" lon="6.7333">
        <ele>236.62</ele>
        <time>2021-04-18T06:35:00Z</time>
      </trkpt>
      <trkpt lat="49.10842" lon="6.7333">
        <ele>236.62</ele>
        <time>2021-04-18T06:35:17Z</time>
      </trkpt>
      <trkpt lat="49.10841" lon="6.7333">
        <ele>236.62</ele>
        <time>2021-04-18T06:35:38Z</time>
      </trkpt>
      <trkpt lat="49.10841" lon="6.73324">
        <ele>236.62</ele>
        <time>2021-04-18T06:36:06Z</time>
      </trkpt>
      <trkpt lat="49.10841" lon="6.73324">
        <ele>236.62</ele>
        <time>2021-04-18T06:36:29Z</time>
      </trkpt>
      <trkpt lat="49.10843" lon="6.73322">
        <ele>236.62</ele>
        <time>2021-04-18T06:37:01Z</time>
      </trkpt>
      <trkpt lat="49.10843" lon="6.73331">
        <ele>236.62</ele>
        <time>2021-04-18T06:37:31Z</time>
      </trkpt>
      <trkpt lat="49.10843" lon="6.73338">
        <ele>236.62</ele>
        <time>2021-04-18T06:38:02Z</time>
      </trkpt>
      <trkpt lat="49.10843" lon="6.73341">
        <ele>236.62</ele>
        <time>2021-04-18T06:38:13Z</time>
      </trkpt>
      <trkpt lat="49.10861" lon="6.73367">
        <ele>237.1</ele>
        <time>2021-04-18T06:49:52Z</time>
      </trkpt>
      <trkpt lat="49.10859" lon="6.73368">
        <ele>235.66</ele>
        <time>2021-04-18T06:49:53Z</time>
      </trkpt>
      <trkpt lat="49.10855" lon="6.73371">
        <ele>235.18</ele>
        <time>2021-04-18T06:50:11Z</time>
      </trkpt>
      <trkpt lat="49.10857" lon="6.73372">
        <ele>236.62</ele>
        <time>2021-04-18T06:50:24Z</time>
      </trkpt>
      <trkpt lat="49.10857" lon="6.73372">
        <ele>237.58</ele>
        <time>2021-04-18T06:50:31Z</time>
      </trkpt>
      <trkpt lat="49.10862" lon="6.73381">
        <ele>234.22</ele>
        <time>2021-04-18T06:50:40Z</time>
      </trkpt>
      <trkpt lat="49.10869" lon="6.73383">
        <ele>237.1</ele>
        <time>2021-04-18T06:50:45Z</time>
      </trkpt>
      <trkpt lat="49.1087" lon="6.73383">
        <ele>237.1</ele>
        <time>2021-04-18T06:50:46Z</time>
      </trkpt>
      <trkpt lat="49.10878" lon="6.73384">
        <ele>235.66</ele>
        <time>2021-04-18T06:50:55Z</time>
      </trkpt>
      <trkpt lat="49.10892" lon="6.73385">
        <ele>236.14</ele>
        <time>2021-04-18T06:51:12Z</time>
      </trkpt>
      <trkpt lat="49.10913" lon="6.73386">
        <ele>236.14</ele>
        <time>2021-04-18T06:51:28Z</time>
      </trkpt>
      <trkpt lat="49.10936" lon="6.73384">
        <ele>235.18</ele>
        <time>2021-04-18T06:51:45Z</time>
      </trkpt>
      <trkpt lat="49.10969" lon="6.73378">
        <ele>235.18</ele>
        <time>2021-04-18T06:52:06Z</time>
      </trkpt>
      <trkpt lat="49.10975" lon="6.73375">
        <ele>234.22</ele>
        <time>2021-04-18T06:52:20Z</time>
      </trkpt>
      <trkpt lat="49.10999" lon="6.73368">
        <ele>235.66</ele>
        <time>2021-04-18T06:52:35Z</time>
      </trkpt>
      <trkpt lat="49.11017" lon="6.73345">
        <ele>232.3</ele>
        <time>2021-04-18T06:52:51Z</time>
      </trkpt>
      <trkpt lat="49.11018" lon="6.73344">
        <ele>238.54</ele>
        <time>2021-04-18T06:52:52Z</time>
      </trkpt>
      <trkpt lat="49.11022" lon="6.73338">
        <ele>235.18</ele>
        <time>2021-04-18T06:52:56Z</time>
      </trkpt>
      <trkpt lat="49.11037" lon="6.73303">
        <ele>236.62</ele>
        <time>2021-04-18T06:53:16Z</time>
      </trkpt>
      <trkpt lat="49.11055" lon="6.7327">
        <ele>237.58</ele>
        <time>2021-04-18T06:53:36Z</time>
      </trkpt>
      <trkpt lat="49.11082" lon="6.73251">
        <ele>237.1</ele>
        <time>2021-04-18T06:53:57Z</time>
      </trkpt>
      <trkpt lat="49.111" lon="6.73242">
        <ele>239.99</ele>
        <time>2021-04-18T06:54:12Z</time>
      </trkpt>
      <trkpt lat="49.11108" lon="6.73238">
        <ele>236.62</ele>
        <time>2021-04-18T06:54:18Z</time>
      </trkpt>
      <trkpt lat="49.11119" lon="6.73233">
        <ele>239.99</ele>
        <time>2021-04-18T06:54:27Z</time>
      </trkpt>
      <trkpt lat="49.11148" lon="6.73222">
        <ele>240.47</ele>
        <time>2021-04-18T06:54:47Z</time>
      </trkpt>
      <trkpt lat="49.11156" lon="6.7322">
        <ele>244.31</ele>
        <time>2021-04-18T06:54:54Z</time>
      </trkpt>
      <trkpt lat="49.11158" lon="6.7322">
        <ele>241.91</ele>
        <time>2021-04-18T06:54:55Z</time>
      </trkpt>
      <trkpt lat="49.11175" lon="6.73211">
        <ele>242.87</ele>
        <time>2021-04-18T06:55:11Z</time>
      </trkpt>
      <trkpt lat="49.11177" lon="6.73211">
        <ele>242.87</ele>
        <time>2021-04-18T06:55:13Z</time>
      </trkpt>
      <trkpt lat="49.11196" lon="6.73202">
        <ele>245.75</ele>
        <time>2021-04-18T06:55:29Z</time>
      </trkpt>
      <trkpt lat="49.11204" lon="6.73196">
        <ele>242.87</ele>
        <time>2021-04-18T06:55:36Z</time>
      </trkpt>
      <trkpt lat="49.1121" lon="6.7319">
        <ele>246.23</ele>
        <time>2021-04-18T06:55:42Z</time>
      </trkpt>
      <trkpt lat="49.11214" lon="6.73188">
        <ele>243.83</ele>
        <time>2021-04-18T06:55:46Z</time>
      </trkpt>
      <trkpt lat="49.11219" lon="6.73185">
        <ele>244.79</ele>
        <time>2021-04-18T06:55:50Z</time>
      </trkpt>
      <trkpt lat="49.11243" lon="6.73181">
        <ele>247.68</ele>
        <time>2021-04-18T06:56:03Z</time>
      </trkpt>
      <trkpt lat="49.11245" lon="6.73181">
        <ele>245.75</ele>
        <time>2021-04-18T06:56:04Z</time>
      </trkpt>
      <trkpt lat="49.11271" lon="6.73173">
        <ele>245.27</ele>
        <time>2021-04-18T06:56:22Z</time>
      </trkpt>
      <trkpt lat="49.11294" lon="6.73165">
        <ele>247.2</ele>
        <time>2021-04-18T06:56:39Z</time>
      </trkpt>
      <trkpt lat="49.11323" lon="6.73154">
        <ele>247.2</ele>
        <time>2021-04-18T06:57:00Z</time>
      </trkpt>
      <trkpt lat="49.11348" lon="6.73147">
        <ele>247.2</ele>
        <time>2021-04-18T06:57:19Z</time>
      </trkpt>
      <trkpt lat="49.11373" lon="6.73144">
        <ele>249.6</ele>
        <time>2021-04-18T06:57:37Z</time>
      </trkpt>
      <trkpt lat="49.11383" lon="6.73146">
        <ele>249.6</ele>
        <time>2021-04-18T06:57:47Z</time>
      </trkpt>
      <trkpt lat="49.11392" lon="6.73152">
        <ele>252</ele>
        <time>2021-04-18T06:57:57Z</time>
      </trkpt>
      <trkpt lat="49.11393" lon="6.73152">
        <ele>248.64</ele>
        <time>2021-04-18T06:57:58Z</time>
      </trkpt>
      <trkpt lat="49.11394" lon="6.73153">
        <ele>252</ele>
        <time>2021-04-18T06:57:59Z</time>
      </trkpt>
      <trkpt lat="49.11418" lon="6.73153">
        <ele>252.48</ele>
        <time>2021-04-18T06:58:16Z</time>
      </trkpt>
      <trkpt lat="49.11442" lon="6.73157">
        <ele>252.48</ele>
        <time>2021-04-18T06:58:34Z</time>
      </trkpt>
      <trkpt lat="49.11471" lon="6.73166">
        <ele>254.41</ele>
        <time>2021-04-18T06:58:53Z</time>
      </trkpt>
      <trkpt lat="49.1149" lon="6.73169">
        <ele>254.89</ele>
        <time>2021-04-18T06:59:10Z</time>
      </trkpt>
      <trkpt lat="49.11513" lon="6.7317">
        <ele>255.85</ele>
        <time>2021-04-18T06:59:32Z</time>
      </trkpt>
      <trkpt lat="49.11538" lon="6.7317">
        <ele>255.37</ele>
        <time>2021-04-18T06:59:50Z</time>
      </trkpt>
      <trkpt lat="49.11549" lon="6.7317">
        <ele>255.37</ele>
        <time>2021-04-18T06:59:57Z</time>
      </trkpt>
      <trkpt lat="49.11576" lon="6.73169">
        <ele>256.33</ele>
        <time>2021-04-18T07:00:14Z</time>
      </trkpt>
      <trkpt lat="49.11601" lon="6.73167">
        <ele>258.25</ele>
        <time>2021-04-18T07:00:29Z</time>
      </trkpt>
      <trkpt lat="49.11627" lon="6.73167">
        <ele>257.29</ele>
        <time>2021-04-18T07:00:45Z</time>
      </trkpt>
      <trkpt lat="49.11649" lon="6.73176">
        <ele>257.77</ele>
        <time>2021-04-18T07:00:59Z</time>
      </trkpt>
      <trkpt lat="49.11668" lon="6.73178">
        <ele>259.69</ele>
        <time>2021-04-18T07:01:12Z</time>
      </trkpt>
      <trkpt lat="49.11693" lon="6.73183">
        <ele>259.21</ele>
        <time>2021-04-18T07:01:27Z</time>
      </trkpt>
      <trkpt lat="49.1171" lon="6.73195">
        <ele>260.17</ele>
        <time>2021-04-18T07:01:42Z</time>
      </trkpt>
      <trkpt lat="49.11711" lon="6.73195">
        <ele>257.29</ele>
        <time>2021-04-18T07:01:43Z</time>
      </trkpt>
      <trkpt lat="49.11716" lon="6.73197">
        <ele>260.17</ele>
        <time>2021-04-18T07:01:47Z</time>
      </trkpt>
      <trkpt lat="49.11733" lon="6.73202">
        <ele>260.65</ele>
        <time>2021-04-18T07:02:01Z</time>
      </trkpt>
      <trkpt lat="49.1174" lon="6.73207">
        <ele>260.65</ele>
        <time>2021-04-18T07:02:13Z</time>
      </trkpt>
      <trkpt lat="49.11739" lon="6.73199">
        <ele>261.14</ele>
        <time>2021-04-18T07:02:31Z</time>
      </trkpt>
      <trkpt lat="49.11745" lon="6.73203">
        <ele>260.17</ele>
        <time>2021-04-18T07:02:41Z</time>
      </trkpt>
      <trkpt lat="49.1175" lon="6.73205">
        <ele>261.14</ele>
        <time>2021-04-18T07:02:45Z</time>
      </trkpt>
      <trkpt lat="49.11773" lon="6.73217">
        <ele>262.1</ele>
        <time>2021-04-18T07:03:01Z</time>
      </trkpt>
      <trkpt lat="49.11787" lon="6.73223">
        <ele>261.14</ele>
        <time>2021-04-18T07:03:11Z</time>
      </trkpt>
      <trkpt lat="49.11793" lon="6.73224">
        <ele>262.58</ele>
        <time>2021-04-18T07:03:16Z</time>
      </trkpt>
      <trkpt lat="49.11802" lon="6.73225">
        <ele>262.1</ele>
        <time>2021-04-18T07:03:22Z</time>
      </trkpt>
      <trkpt lat="49.11805" lon="6.73226">
        <ele>263.06</ele>
        <time>2021-04-18T07:03:25Z</time>
      </trkpt>
      <trkpt lat="49.11828" lon="6.73235">
        <ele>264.98</ele>
        <time>2021-04-18T07:03:40Z</time>
      </trkpt>
      <trkpt lat="49.1185" lon="6.73248">
        <ele>266.42</ele>
        <time>2021-04-18T07:03:56Z</time>
      </trkpt>
      <trkpt lat="49.11868" lon="6.7326">
        <ele>266.42</ele>
        <time>2021-04-18T07:04:10Z</time>
      </trkpt>
      <trkpt lat="49.11879" lon="6.73277">
        <ele>268.83</ele>
        <time>2021-04-18T07:04:25Z</time>
      </trkpt>
      <trkpt lat="49.11895" lon="6.73296">
        <ele>267.38</ele>
        <time>2021-04-18T07:04:40Z</time>
      </trkpt>
      <trkpt lat="49.11914" lon="6.73318">
        <ele>269.79</ele>
        <time>2021-04-18T07:04:56Z</time>
      </trkpt>
      <trkpt lat="49.11935" lon="6.73332">
        <ele>271.23</ele>
        <time>2021-04-18T07:05:11Z</time>
      </trkpt>
      <trkpt lat="49.11954" lon="6.73345">
        <ele>270.27</ele>
        <time>2021-04-18T07:05:26Z</time>
      </trkpt>
      <trkpt lat="49.11965" lon="6.73353">
        <ele>270.27</ele>
        <time>2021-04-18T07:05:37Z</time>
      </trkpt>
      <trkpt lat="49.11984" lon="6.73355">
        <ele>271.23</ele>
        <time>2021-04-18T07:05:50Z</time>
      </trkpt>
      <trkpt lat="49.12012" lon="6.73344">
        <ele>272.67</ele>
        <time>2021-04-18T07:06:08Z</time>
      </trkpt>
      <trkpt lat="49.12034" lon="6.73339">
        <ele>273.15</ele>
        <time>2021-04-18T07:06:25Z</time>
      </trkpt>
      <trkpt lat="49.12046" lon="6.73339">
        <ele>276.52</ele>
        <time>2021-04-18T07:06:34Z</time>
      </trkpt>
      <trkpt lat="49.12069" lon="6.73339">
        <ele>274.59</ele>
        <time>2021-04-18T07:06:49Z</time>
      </trkpt>
      <trkpt lat="49.12091" lon="6.73345">
        <ele>276.52</ele>
        <time>2021-04-18T07:07:04Z</time>
      </trkpt>
      <trkpt lat="49.12116" lon="6.73352">
        <ele>278.44</ele>
        <time>2021-04-18T07:07:22Z</time>
      </trkpt>
      <trkpt lat="49.12145" lon="6.73352">
        <ele>280.84</ele>
        <time>2021-04-18T07:07:43Z</time>
      </trkpt>
      <trkpt lat="49.12165" lon="6.73357">
        <ele>281.8</ele>
        <time>2021-04-18T07:07:59Z</time>
      </trkpt>
      <trkpt lat="49.1219" lon="6.73365">
        <ele>282.28</ele>
        <time>2021-04-18T07:08:17Z</time>
      </trkpt>
      <trkpt lat="49.12209" lon="6.73372">
        <ele>286.13</ele>
        <time>2021-04-18T07:08:33Z</time>
      </trkpt>
      <trkpt lat="49.1223" lon="6.73374">
        <ele>284.21</ele>
        <time>2021-04-18T07:08:50Z</time>
      </trkpt>
      <trkpt lat="49.12232" lon="6.73375">
        <ele>284.69</ele>
        <time>2021-04-18T07:08:51Z</time>
      </trkpt>
      <trkpt lat="49.12245" lon="6.73377">
        <ele>286.13</ele>
        <time>2021-04-18T07:09:00Z</time>
      </trkpt>
      <trkpt lat="49.12254" lon="6.73379">
        <ele>288.05</ele>
        <time>2021-04-18T07:09:06Z</time>
      </trkpt>
      <trkpt lat="49.12277" lon="6.73374">
        <ele>291.9</ele>
        <time>2021-04-18T07:09:22Z</time>
      </trkpt>
      <trkpt lat="49.12295" lon="6.7337">
        <ele>292.38</ele>
        <time>2021-04-18T07:09:38Z</time>
      </trkpt>
      <trkpt lat="49.12311" lon="6.73368">
        <ele>295.26</ele>
        <time>2021-04-18T07:09:51Z</time>
      </trkpt>
      <trkpt lat="49.12318" lon="6.73372">
        <ele>294.78</ele>
        <time>2021-04-18T07:09:56Z</time>
      </trkpt>
      <trkpt lat="49.12339" lon="6.73388">
        <ele>294.78</ele>
        <time>2021-04-18T07:10:11Z</time>
      </trkpt>
      <trkpt lat="49.12353" lon="6.73398">
        <ele>294.78</ele>
        <time>2021-04-18T07:10:24Z</time>
      </trkpt>
      <trkpt lat="49.12371" lon="6.73404">
        <ele>298.15</ele>
        <time>2021-04-18T07:10:38Z</time>
      </trkpt>
      <trkpt lat="49.12401" lon="6.73414">
        <ele>299.11</ele>
        <time>2021-04-18T07:10:57Z</time>
      </trkpt>
      <trkpt lat="49.12424" lon="6.73424">
        <ele>298.15</ele>
        <time>2021-04-18T07:11:15Z</time>
      </trkpt>
      <trkpt lat="49.12447" lon="6.73432">
        <ele>301.03</ele>
        <time>2021-04-18T07:11:28Z</time>
      </trkpt>
      <trkpt lat="49.1247" lon="6.73451">
        <ele>301.99</ele>
        <time>2021-04-18T07:11:47Z</time>
      </trkpt>
      <trkpt lat="49.12484" lon="6.73464">
        <ele>303.91</ele>
        <time>2021-04-18T07:11:59Z</time>
      </trkpt>
      <trkpt lat="49.12499" lon="6.73483">
        <ele>305.36</ele>
        <time>2021-04-18T07:12:14Z</time>
      </trkpt>
      <trkpt lat="49.12514" lon="6.73503">
        <ele>304.88</ele>
        <time>2021-04-18T07:12:29Z</time>
      </trkpt>
      <trkpt lat="49.12527" lon="6.73522">
        <ele>308.24</ele>
        <time>2021-04-18T07:12:42Z</time>
      </trkpt>
      <trkpt lat="49.12535" lon="6.73531">
        <ele>306.8</ele>
        <time>2021-04-18T07:12:47Z</time>
      </trkpt>
      <trkpt lat="49.12561" lon="6.73528">
        <ele>309.2</ele>
        <time>2021-04-18T07:13:05Z</time>
      </trkpt>
      <trkpt lat="49.12578" lon="6.73502">
        <ele>311.12</ele>
        <time>2021-04-18T07:13:20Z</time>
      </trkpt>
      <trkpt lat="49.12579" lon="6.73499">
        <ele>311.12</ele>
        <time>2021-04-18T07:13:22Z</time>
      </trkpt>
      <trkpt lat="49.12599" lon="6.73479">
        <ele>311.6</ele>
        <time>2021-04-18T07:13:39Z</time>
      </trkpt>
      <trkpt lat="49.12617" lon="6.73485">
        <ele>313.05</ele>
        <time>2021-04-18T07:13:56Z</time>
      </trkpt>
      <trkpt lat="49.12633" lon="6.73506">
        <ele>314.01</ele>
        <time>2021-04-18T07:14:12Z</time>
      </trkpt>
      <trkpt lat="49.12652" lon="6.73535">
        <ele>314.97</ele>
        <time>2021-04-18T07:14:32Z</time>
      </trkpt>
      <trkpt lat="49.12668" lon="6.73558">
        <ele>315.93</ele>
        <time>2021-04-18T07:14:48Z</time>
      </trkpt>
      <trkpt lat="49.12684" lon="6.73585">
        <ele>318.33</ele>
        <time>2021-04-18T07:15:06Z</time>
      </trkpt>
      <trkpt lat="49.12705" lon="6.73613">
        <ele>319.3</ele>
        <time>2021-04-18T07:15:23Z</time>
      </trkpt>
      <trkpt lat="49.12724" lon="6.73639">
        <ele>319.78</ele>
        <time>2021-04-18T07:15:39Z</time>
      </trkpt>
      <trkpt lat="49.12745" lon="6.73656">
        <ele>320.74</ele>
        <time>2021-04-18T07:15:56Z</time>
      </trkpt>
      <trkpt lat="49.12767" lon="6.73663">
        <ele>322.18</ele>
        <time>2021-04-18T07:16:14Z</time>
      </trkpt>
      <trkpt lat="49.12793" lon="6.73638">
        <ele>322.66</ele>
        <time>2021-04-18T07:16:32Z</time>
      </trkpt>
      <trkpt lat="49.12798" lon="6.73617">
        <ele>323.62</ele>
        <time>2021-04-18T07:16:42Z</time>
      </trkpt>
      <trkpt lat="49.12803" lon="6.73588">
        <ele>323.14</ele>
        <time>2021-04-18T07:16:57Z</time>
      </trkpt>
      <trkpt lat="49.12808" lon="6.73569">
        <ele>324.58</ele>
        <time>2021-04-18T07:17:07Z</time>
      </trkpt>
      <trkpt lat="49.12811" lon="6.73559">
        <ele>324.1</ele>
        <time>2021-04-18T07:17:13Z</time>
      </trkpt>
      <trkpt lat="49.12822" lon="6.73534">
        <ele>326.5</ele>
        <time>2021-04-18T07:17:30Z</time>
      </trkpt>
      <trkpt lat="49.12829" lon="6.73534">
        <ele>326.02</ele>
        <time>2021-04-18T07:17:37Z</time>
      </trkpt>
      <trkpt lat="49.12848" lon="6.73543">
        <ele>326.5</ele>
        <time>2021-04-18T07:17:55Z</time>
      </trkpt>
      <trkpt lat="49.12869" lon="6.7356">
        <ele>326.5</ele>
        <time>2021-04-18T07:18:10Z</time>
      </trkpt>
      <trkpt lat="49.12875" lon="6.73566">
        <ele>328.43</ele>
        <time>2021-04-18T07:18:14Z</time>
      </trkpt>
      <trkpt lat="49.12883" lon="6.73574">
        <ele>327.95</ele>
        <time>2021-04-18T07:18:19Z</time>
      </trkpt>
      <trkpt lat="49.12902" lon="6.73586">
        <ele>328.43</ele>
        <time>2021-04-18T07:18:34Z</time>
      </trkpt>
      <trkpt lat="49.12904" lon="6.73591">
        <ele>329.39</ele>
        <time>2021-04-18T07:18:37Z</time>
      </trkpt>
      <trkpt lat="49.12916" lon="6.73617">
        <ele>330.83</ele>
        <time>2021-04-18T07:18:51Z</time>
      </trkpt>
      <trkpt lat="49.12929" lon="6.73642">
        <ele>331.31</ele>
        <time>2021-04-18T07:19:07Z</time>
      </trkpt>
      <trkpt lat="49.12945" lon="6.73673">
        <ele>329.87</ele>
        <time>2021-04-18T07:19:24Z</time>
      </trkpt>
      <trkpt lat="49.12947" lon="6.73676">
        <ele>332.75</ele>
        <time>2021-04-18T07:19:26Z</time>
      </trkpt>
      <trkpt lat="49.12959" lon="6.737">
        <ele>334.2</ele>
        <time>2021-04-18T07:19:41Z</time>
      </trkpt>
      <trkpt lat="49.12974" lon="6.73732">
        <ele>333.71</ele>
        <time>2021-04-18T07:19:58Z</time>
      </trkpt>
      <trkpt lat="49.12987" lon="6.73757">
        <ele>334.68</ele>
        <time>2021-04-18T07:20:12Z</time>
      </trkpt>
      <trkpt lat="49.12993" lon="6.73765">
        <ele>333.23</ele>
        <time>2021-04-18T07:20:18Z</time>
      </trkpt>
      <trkpt lat="49.12995" lon="6.73768">
        <ele>334.68</ele>
        <time>2021-04-18T07:20:20Z</time>
      </trkpt>
      <trkpt lat="49.1301" lon="6.7379">
        <ele>336.12</ele>
        <time>2021-04-18T07:20:35Z</time>
      </trkpt>
      <trkpt lat="49.13021" lon="6.738">
        <ele>336.12</ele>
        <time>2021-04-18T07:20:50Z</time>
      </trkpt>
      <trkpt lat="49.13028" lon="6.7381">
        <ele>335.16</ele>
        <time>2021-04-18T07:20:56Z</time>
      </trkpt>
      <trkpt lat="49.1305" lon="6.73831">
        <ele>336.6</ele>
        <time>2021-04-18T07:21:12Z</time>
      </trkpt>
      <trkpt lat="49.13069" lon="6.73845">
        <ele>337.08</ele>
        <time>2021-04-18T07:21:27Z</time>
      </trkpt>
      <trkpt lat="49.13091" lon="6.73868">
        <ele>338.04</ele>
        <time>2021-04-18T07:21:43Z</time>
      </trkpt>
      <trkpt lat="49.13109" lon="6.73896">
        <ele>337.08</ele>
        <time>2021-04-18T07:22:00Z</time>
      </trkpt>
      <trkpt lat="49.13126" lon="6.73924">
        <ele>338.52</ele>
        <time>2021-04-18T07:22:17Z</time>
      </trkpt>
      <trkpt lat="49.13133" lon="6.73935">
        <ele>338.52</ele>
        <time>2021-04-18T07:22:36Z</time>
      </trkpt>
      <trkpt lat="49.13136" lon="6.73941">
        <ele>338.04</ele>
        <time>2021-04-18T07:22:52Z</time>
      </trkpt>
      <trkpt lat="49.13135" lon="6.73937">
        <ele>338.04</ele>
        <time>2021-04-18T07:23:16Z</time>
      </trkpt>
      <trkpt lat="49.13135" lon="6.73938">
        <ele>337.56</ele>
        <time>2021-04-18T07:23:30Z</time>
      </trkpt>
      <trkpt lat="49.13138" lon="6.73949">
        <ele>337.56</ele>
        <time>2021-04-18T07:23:36Z</time>
      </trkpt>
      <trkpt lat="49.1315" lon="6.73978">
        <ele>338.52</ele>
        <time>2021-04-18T07:23:50Z</time>
      </trkpt>
      <trkpt lat="49.13159" lon="6.74013">
        <ele>339</ele>
        <time>2021-04-18T07:24:06Z</time>
      </trkpt>
      <trkpt lat="49.1316" lon="6.74053">
        <ele>339.96</ele>
        <time>2021-04-18T07:24:22Z</time>
      </trkpt>
      <trkpt lat="49.13161" lon="6.74085">
        <ele>339.48</ele>
        <time>2021-04-18T07:24:37Z</time>
      </trkpt>
      <trkpt lat="49.1316" lon="6.74119">
        <ele>339</ele>
        <time>2021-04-18T07:24:52Z</time>
      </trkpt>
      <trkpt lat="49.13157" lon="6.74156">
        <ele>339.96</ele>
        <time>2021-04-18T07:25:07Z</time>
      </trkpt>
      <trkpt lat="49.13158" lon="6.74193">
        <ele>340.92</ele>
        <time>2021-04-18T07:25:24Z</time>
      </trkpt>
      <trkpt lat="49.13161" lon="6.74213">
        <ele>340.92</ele>
        <time>2021-04-18T07:25:32Z</time>
      </trkpt>
      <trkpt lat="49.13172" lon="6.74252">
        <ele>341.41</ele>
        <time>2021-04-18T07:25:50Z</time>
      </trkpt>
      <trkpt lat="49.13182" lon="6.74292">
        <ele>342.85</ele>
        <time>2021-04-18T07:26:09Z</time>
      </trkpt>
      <trkpt lat="49.13187" lon="6.74315">
        <ele>342.85</ele>
        <time>2021-04-18T07:26:20Z</time>
      </trkpt>
      <trkpt lat="49.13197" lon="6.74351">
        <ele>343.81</ele>
        <time>2021-04-18T07:26:38Z</time>
      </trkpt>
      <trkpt lat="49.13205" lon="6.74383">
        <ele>344.77</ele>
        <time>2021-04-18T07:26:54Z</time>
      </trkpt>
      <trkpt lat="49.13206" lon="6.74417">
        <ele>346.21</ele>
        <time>2021-04-18T07:27:12Z</time>
      </trkpt>
      <trkpt lat="49.13205" lon="6.74431">
        <ele>346.69</ele>
        <time>2021-04-18T07:27:19Z</time>
      </trkpt>
      <trkpt lat="49.13198" lon="6.74462">
        <ele>346.21</ele>
        <time>2021-04-18T07:27:35Z</time>
      </trkpt>
      <trkpt lat="49.13196" lon="6.74464">
        <ele>348.62</ele>
        <time>2021-04-18T07:27:37Z</time>
      </trkpt>
      <trkpt lat="49.13195" lon="6.74465">
        <ele>345.73</ele>
        <time>2021-04-18T07:27:38Z</time>
      </trkpt>
      <trkpt lat="49.13194" lon="6.74466">
        <ele>346.69</ele>
        <time>2021-04-18T07:27:39Z</time>
      </trkpt>
      <trkpt lat="49.13193" lon="6.74467">
        <ele>348.13</ele>
        <time>2021-04-18T07:27:40Z</time>
      </trkpt>
      <trkpt lat="49.13176" lon="6.74489">
        <ele>345.73</ele>
        <time>2021-04-18T07:27:53Z</time>
      </trkpt>
      <trkpt lat="49.13168" lon="6.74497">
        <ele>345.25</ele>
        <time>2021-04-18T07:27:59Z</time>
      </trkpt>
      <trkpt lat="49.13161" lon="6.74504">
        <ele>345.73</ele>
        <time>2021-04-18T07:28:05Z</time>
      </trkpt>
      <trkpt lat="49.13141" lon="6.7452">
        <ele>344.29</ele>
        <time>2021-04-18T07:28:21Z</time>
      </trkpt>
      <trkpt lat="49.13129" lon="6.74529">
        <ele>343.81</ele>
        <time>2021-04-18T07:28:30Z</time>
      </trkpt>
      <trkpt lat="49.13111" lon="6.74548">
        <ele>343.33</ele>
        <time>2021-04-18T07:28:44Z</time>
      </trkpt>
      <trkpt lat="49.13108" lon="6.74551">
        <ele>343.81</ele>
        <time>2021-04-18T07:28:46Z</time>
      </trkpt>
      <trkpt lat="49.13101" lon="6.74552">
        <ele>341.89</ele>
        <time>2021-04-18T07:28:51Z</time>
      </trkpt>
      <trkpt lat="49.13095" lon="6.74549">
        <ele>340.44</ele>
        <time>2021-04-18T07:29:03Z</time>
      </trkpt>
      <trkpt lat="49.13088" lon="6.74547">
        <ele>341.89</ele>
        <time>2021-04-18T07:29:20Z</time>
      </trkpt>
      <trkpt lat="49.13089" lon="6.74551">
        <ele>341.89</ele>
        <time>2021-04-18T07:29:34Z</time>
      </trkpt>
      <trkpt lat="49.13089" lon="6.74555">
        <ele>341.89</ele>
        <time>2021-04-18T07:29:54Z</time>
      </trkpt>
      <trkpt lat="49.13089" lon="6.74549">
        <ele>342.85</ele>
        <time>2021-04-18T07:30:19Z</time>
      </trkpt>
      <trkpt lat="49.13087" lon="6.74557">
        <ele>342.85</ele>
        <time>2021-04-18T07:30:39Z</time>
      </trkpt>
      <trkpt lat="49.13088" lon="6.74568">
        <ele>340.44</ele>
        <time>2021-04-18T07:31:04Z</time>
      </trkpt>
      <trkpt lat="49.13087" lon="6.74569">
        <ele>340.92</ele>
        <time>2021-04-18T07:31:05Z</time>
      </trkpt>
      <trkpt lat="49.13088" lon="6.74588">
        <ele>340.44</ele>
        <time>2021-04-18T07:31:18Z</time>
      </trkpt>
      <trkpt lat="49.13088" lon="6.7459">
        <ele>338.52</ele>
        <time>2021-04-18T07:31:19Z</time>
      </trkpt>
      <trkpt lat="49.13086" lon="6.74602">
        <ele>338.52</ele>
        <time>2021-04-18T07:31:25Z</time>
      </trkpt>
      <trkpt lat="49.13087" lon="6.74615">
        <ele>336.12</ele>
        <time>2021-04-18T07:31:32Z</time>
      </trkpt>
      <trkpt lat="49.13083" lon="6.74643">
        <ele>337.08</ele>
        <time>2021-04-18T07:31:44Z</time>
      </trkpt>
      <trkpt lat="49.13073" lon="6.74677">
        <ele>337.08</ele>
        <time>2021-04-18T07:31:58Z</time>
      </trkpt>
      <trkpt lat="49.13064" lon="6.74708">
        <ele>337.08</ele>
        <time>2021-04-18T07:32:09Z</time>
      </trkpt>
      <trkpt lat="49.13055" lon="6.74717">
        <ele>336.12</ele>
        <time>2021-04-18T07:32:15Z</time>
      </trkpt>
      <trkpt lat="49.13043" lon="6.74706">
        <ele>331.79</ele>
        <time>2021-04-18T07:32:28Z</time>
      </trkpt>
      <trkpt lat="49.13027" lon="6.74687">
        <ele>328.43</ele>
        <time>2021-04-18T07:32:44Z</time>
      </trkpt>
      <trkpt lat="49.1302" lon="6.74683">
        <ele>328.43</ele>
        <time>2021-04-18T07:32:50Z</time>
      </trkpt>
      <trkpt lat="49.13009" lon="6.74668">
        <ele>325.06</ele>
        <time>2021-04-18T07:33:01Z</time>
      </trkpt>
      <trkpt lat="49.13009" lon="6.74662">
        <ele>326.02</ele>
        <time>2021-04-18T07:33:15Z</time>
      </trkpt>
      <trkpt lat="49.1301" lon="6.74659">
        <ele>325.06</ele>
        <time>2021-04-18T07:33:32Z</time>
      </trkpt>
      <trkpt lat="49.13007" lon="6.7466">
        <ele>324.58</ele>
        <time>2021-04-18T07:33:35Z</time>
      </trkpt>
      <trkpt lat="49.13" lon="6.74657">
        <ele>326.02</ele>
        <time>2021-04-18T07:33:41Z</time>
      </trkpt>
      <trkpt lat="49.12999" lon="6.74654">
        <ele>324.1</ele>
        <time>2021-04-18T07:33:43Z</time>
      </trkpt>
      <trkpt lat="49.12989" lon="6.74643">
        <ele>321.7</ele>
        <time>2021-04-18T07:33:54Z</time>
      </trkpt>
      <trkpt lat="49.12981" lon="6.7463">
        <ele>317.37</ele>
        <time>2021-04-18T07:34:04Z</time>
      </trkpt>
      <trkpt lat="49.12975" lon="6.74621">
        <ele>316.41</ele>
        <time>2021-04-18T07:34:11Z</time>
      </trkpt>
      <trkpt lat="49.12972" lon="6.74615">
        <ele>314.97</ele>
        <time>2021-04-18T07:34:16Z</time>
      </trkpt>
      <trkpt lat="49.12963" lon="6.74601">
        <ele>312.09</ele>
        <time>2021-04-18T07:34:25Z</time>
      </trkpt>
      <trkpt lat="49.12955" lon="6.74588">
        <ele>307.76</ele>
        <time>2021-04-18T07:34:34Z</time>
      </trkpt>
      <trkpt lat="49.12945" lon="6.74574">
        <ele>306.32</ele>
        <time>2021-04-18T07:34:44Z</time>
      </trkpt>
      <trkpt lat="49.12934" lon="6.7456">
        <ele>303.91</ele>
        <time>2021-04-18T07:34:53Z</time>
      </trkpt>
      <trkpt lat="49.12925" lon="6.74544">
        <ele>300.55</ele>
        <time>2021-04-18T07:35:05Z</time>
      </trkpt>
      <trkpt lat="49.12924" lon="6.74542">
        <ele>300.55</ele>
        <time>2021-04-18T07:35:06Z</time>
      </trkpt>
      <trkpt lat="49.12906" lon="6.74532">
        <ele>297.67</ele>
        <time>2021-04-18T07:35:18Z</time>
      </trkpt>
      <trkpt lat="49.12885" lon="6.7454">
        <ele>294.3</ele>
        <time>2021-04-18T07:35:32Z</time>
      </trkpt>
      <trkpt lat="49.12869" lon="6.74549">
        <ele>291.42</ele>
        <time>2021-04-18T07:35:45Z</time>
      </trkpt>
      <trkpt lat="49.12861" lon="6.74548">
        <ele>288.05</ele>
        <time>2021-04-18T07:35:52Z</time>
      </trkpt>
      <trkpt lat="49.12856" lon="6.7455">
        <ele>287.57</ele>
        <time>2021-04-18T07:35:56Z</time>
      </trkpt>
      <trkpt lat="49.12852" lon="6.74551">
        <ele>285.17</ele>
        <time>2021-04-18T07:36:07Z</time>
      </trkpt>
      <trkpt lat="49.12852" lon="6.74553">
        <ele>289.97</ele>
        <time>2021-04-18T07:36:08Z</time>
      </trkpt>
      <trkpt lat="49.12849" lon="6.74561">
        <ele>288.05</ele>
        <time>2021-04-18T07:36:12Z</time>
      </trkpt>
      <trkpt lat="49.1283" lon="6.74585">
        <ele>286.13</ele>
        <time>2021-04-18T07:36:29Z</time>
      </trkpt>
      <trkpt lat="49.12822" lon="6.74621">
        <ele>285.17</ele>
        <time>2021-04-18T07:36:46Z</time>
      </trkpt>
      <trkpt lat="49.12819" lon="6.74639">
        <ele>285.17</ele>
        <time>2021-04-18T07:36:53Z</time>
      </trkpt>
      <trkpt lat="49.12818" lon="6.7466">
        <ele>285.17</ele>
        <time>2021-04-18T07:37:02Z</time>
      </trkpt>
      <trkpt lat="49.12819" lon="6.74672">
        <ele>285.65</ele>
        <time>2021-04-18T07:37:10Z</time>
      </trkpt>
      <trkpt lat="49.12819" lon="6.74683">
        <ele>284.69</ele>
        <time>2021-04-18T07:37:16Z</time>
      </trkpt>
      <trkpt lat="49.12825" lon="6.74728">
        <ele>283.73</ele>
        <time>2021-04-18T07:37:37Z</time>
      </trkpt>
      <trkpt lat="49.12827" lon="6.74747">
        <ele>285.17</ele>
        <time>2021-04-18T07:37:46Z</time>
      </trkpt>
      <trkpt lat="49.12842" lon="6.74778">
        <ele>283.73</ele>
        <time>2021-04-18T07:38:03Z</time>
      </trkpt>
      <trkpt lat="49.12848" lon="6.74782">
        <ele>286.61</ele>
        <time>2021-04-18T07:38:07Z</time>
      </trkpt>
      <trkpt lat="49.12867" lon="6.74802">
        <ele>289.49</ele>
        <time>2021-04-18T07:38:24Z</time>
      </trkpt>
      <trkpt lat="49.12869" lon="6.74805">
        <ele>289.49</ele>
        <time>2021-04-18T07:38:26Z</time>
      </trkpt>
      <trkpt lat="49.12888" lon="6.74836">
        <ele>290.94</ele>
        <time>2021-04-18T07:38:42Z</time>
      </trkpt>
      <trkpt lat="49.12899" lon="6.74847">
        <ele>287.57</ele>
        <time>2021-04-18T07:38:52Z</time>
      </trkpt>
      <trkpt lat="49.12911" lon="6.74861">
        <ele>285.17</ele>
        <time>2021-04-18T07:39:03Z</time>
      </trkpt>
      <trkpt lat="49.12914" lon="6.74876">
        <ele>284.21</ele>
        <time>2021-04-18T07:39:13Z</time>
      </trkpt>
      <trkpt lat="49.12911" lon="6.74876">
        <ele>287.09</ele>
        <time>2021-04-18T07:39:17Z</time>
      </trkpt>
      <trkpt lat="49.12911" lon="6.74876">
        <ele>283.25</ele>
        <time>2021-04-18T07:39:18Z</time>
      </trkpt>
      <trkpt lat="49.12911" lon="6.74876">
        <ele>286.13</ele>
        <time>2021-04-18T07:39:22Z</time>
      </trkpt>
      <trkpt lat="49.12911" lon="6.74877">
        <ele>283.73</ele>
        <time>2021-04-18T07:39:42Z</time>
      </trkpt>
      <trkpt lat="49.12896" lon="6.74883">
        <ele>280.36</ele>
        <time>2021-04-18T07:39:54Z</time>
      </trkpt>
      <trkpt lat="49.12879" lon="6.7489">
        <ele>275.56</ele>
        <time>2021-04-18T07:40:09Z</time>
      </trkpt>
      <trkpt lat="49.12878" lon="6.74891">
        <ele>278.44</ele>
        <time>2021-04-18T07:40:10Z</time>
      </trkpt>
      <trkpt lat="49.12873" lon="6.74893">
        <ele>274.59</ele>
        <time>2021-04-18T07:40:15Z</time>
      </trkpt>
      <trkpt lat="49.12863" lon="6.74898">
        <ele>273.15</ele>
        <time>2021-04-18T07:40:24Z</time>
      </trkpt>
      <trkpt lat="49.12857" lon="6.74899">
        <ele>269.79</ele>
        <time>2021-04-18T07:40:29Z</time>
      </trkpt>
      <trkpt lat="49.12851" lon="6.74899">
        <ele>269.79</ele>
        <time>2021-04-18T07:40:34Z</time>
      </trkpt>
      <trkpt lat="49.12848" lon="6.74898">
        <ele>266.9</ele>
        <time>2021-04-18T07:40:38Z</time>
      </trkpt>
      <trkpt lat="49.12838" lon="6.74894">
        <ele>265.46</ele>
        <time>2021-04-18T07:40:46Z</time>
      </trkpt>
      <trkpt lat="49.12831" lon="6.7489">
        <ele>263.06</ele>
        <time>2021-04-18T07:40:53Z</time>
      </trkpt>
      <trkpt lat="49.12824" lon="6.74889">
        <ele>262.1</ele>
        <time>2021-04-18T07:41:01Z</time>
      </trkpt>
      <trkpt lat="49.12819" lon="6.7489">
        <ele>260.17</ele>
        <time>2021-04-18T07:41:05Z</time>
      </trkpt>
      <trkpt lat="49.12804" lon="6.74888">
        <ele>259.69</ele>
        <time>2021-04-18T07:41:16Z</time>
      </trkpt>
      <trkpt lat="49.12791" lon="6.74887">
        <ele>256.33</ele>
        <time>2021-04-18T07:41:26Z</time>
      </trkpt>
      <trkpt lat="49.1278" lon="6.74886">
        <ele>255.37</ele>
        <time>2021-04-18T07:41:36Z</time>
      </trkpt>
      <trkpt lat="49.12766" lon="6.74882">
        <ele>253.44</ele>
        <time>2021-04-18T07:41:52Z</time>
      </trkpt>
      <trkpt lat="49.12759" lon="6.74884">
        <ele>252.48</ele>
        <time>2021-04-18T07:41:58Z</time>
      </trkpt>
      <trkpt lat="49.12735" lon="6.74896">
        <ele>251.04</ele>
        <time>2021-04-18T07:42:15Z</time>
      </trkpt>
      <trkpt lat="49.1273" lon="6.74897">
        <ele>247.68</ele>
        <time>2021-04-18T07:42:19Z</time>
      </trkpt>
      <trkpt lat="49.12707" lon="6.74904">
        <ele>248.16</ele>
        <time>2021-04-18T07:42:35Z</time>
      </trkpt>
      <trkpt lat="49.12686" lon="6.74906">
        <ele>244.79</ele>
        <time>2021-04-18T07:42:45Z</time>
      </trkpt>
      <trkpt lat="49.12672" lon="6.74891">
        <ele>245.75</ele>
        <time>2021-04-18T07:43:00Z</time>
      </trkpt>
      <trkpt lat="49.12675" lon="6.74882">
        <ele>244.79</ele>
        <time>2021-04-18T07:43:15Z</time>
      </trkpt>
      <trkpt lat="49.12682" lon="6.74872">
        <ele>244.79</ele>
        <time>2021-04-18T07:43:35Z</time>
      </trkpt>
      <trkpt lat="49.12686" lon="6.74854">
        <ele>244.79</ele>
        <time>2021-04-18T07:43:47Z</time>
      </trkpt>
      <trkpt lat="49.12695" lon="6.74822">
        <ele>244.79</ele>
        <time>2021-04-18T07:44:04Z</time>
      </trkpt>
      <trkpt lat="49.127" lon="6.74808">
        <ele>243.35</ele>
        <time>2021-04-18T07:44:12Z</time>
      </trkpt>
      <trkpt lat="49.12701" lon="6.74807">
        <ele>248.16</ele>
        <time>2021-04-18T07:44:13Z</time>
      </trkpt>
      <trkpt lat="49.12701" lon="6.74805">
        <ele>245.27</ele>
        <time>2021-04-18T07:44:14Z</time>
      </trkpt>
      <trkpt lat="49.12703" lon="6.74786">
        <ele>245.27</ele>
        <time>2021-04-18T07:44:22Z</time>
      </trkpt>
      <trkpt lat="49.12709" lon="6.7474">
        <ele>245.27</ele>
        <time>2021-04-18T07:44:41Z</time>
      </trkpt>
      <trkpt lat="49.12709" lon="6.74697">
        <ele>247.68</ele>
        <time>2021-04-18T07:45:00Z</time>
      </trkpt>
      <trkpt lat="49.12713" lon="6.74659">
        <ele>248.64</ele>
        <time>2021-04-18T07:45:19Z</time>
      </trkpt>
      <trkpt lat="49.12716" lon="6.74628">
        <ele>248.64</ele>
        <time>2021-04-18T07:45:34Z</time>
      </trkpt>
      <trkpt lat="49.1272" lon="6.74592">
        <ele>250.08</ele>
        <time>2021-04-18T07:45:50Z</time>
      </trkpt>
      <trkpt lat="49.12721" lon="6.74589">
        <ele>248.16</ele>
        <time>2021-04-18T07:45:52Z</time>
      </trkpt>
      <trkpt lat="49.12721" lon="6.74586">
        <ele>249.12</ele>
        <time>2021-04-18T07:45:53Z</time>
      </trkpt>
      <trkpt lat="49.12724" lon="6.74573">
        <ele>250.08</ele>
        <time>2021-04-18T07:46:00Z</time>
      </trkpt>
      <trkpt lat="49.1273" lon="6.74532">
        <ele>251.52</ele>
        <time>2021-04-18T07:46:21Z</time>
      </trkpt>
      <trkpt lat="49.12727" lon="6.74483">
        <ele>251.52</ele>
        <time>2021-04-18T07:46:40Z</time>
      </trkpt>
      <trkpt lat="49.12724" lon="6.74453">
        <ele>251.04</ele>
        <time>2021-04-18T07:46:54Z</time>
      </trkpt>
      <trkpt lat="49.12722" lon="6.74416">
        <ele>253.44</ele>
        <time>2021-04-18T07:47:10Z</time>
      </trkpt>
      <trkpt lat="49.12716" lon="6.74375">
        <ele>252.96</ele>
        <time>2021-04-18T07:47:28Z</time>
      </trkpt>
      <trkpt lat="49.1271" lon="6.74336">
        <ele>252.96</ele>
        <time>2021-04-18T07:47:45Z</time>
      </trkpt>
      <trkpt lat="49.12705" lon="6.74311">
        <ele>256.81</ele>
        <time>2021-04-18T07:47:57Z</time>
      </trkpt>
      <trkpt lat="49.12704" lon="6.74307">
        <ele>253.93</ele>
        <time>2021-04-18T07:47:59Z</time>
      </trkpt>
      <trkpt lat="49.12703" lon="6.743">
        <ele>253.93</ele>
        <time>2021-04-18T07:48:03Z</time>
      </trkpt>
      <trkpt lat="49.12699" lon="6.74267">
        <ele>256.81</ele>
        <time>2021-04-18T07:48:17Z</time>
      </trkpt>
      <trkpt lat="49.12693" lon="6.74249">
        <ele>256.33</ele>
        <time>2021-04-18T07:48:32Z</time>
      </trkpt>
      <trkpt lat="49.12684" lon="6.74228">
        <ele>255.37</ele>
        <time>2021-04-18T07:48:47Z</time>
      </trkpt>
      <trkpt lat="49.12683" lon="6.74223">
        <ele>258.25</ele>
        <time>2021-04-18T07:48:50Z</time>
      </trkpt>
      <trkpt lat="49.12677" lon="6.74188">
        <ele>260.17</ele>
        <time>2021-04-18T07:49:05Z</time>
      </trkpt>
      <trkpt lat="49.12667" lon="6.74153">
        <ele>259.69</ele>
        <time>2021-04-18T07:49:21Z</time>
      </trkpt>
      <trkpt lat="49.12648" lon="6.74121">
        <ele>259.69</ele>
        <time>2021-04-18T07:49:37Z</time>
      </trkpt>
      <trkpt lat="49.12646" lon="6.74114">
        <ele>259.69</ele>
        <time>2021-04-18T07:49:41Z</time>
      </trkpt>
      <trkpt lat="49.12641" lon="6.74095">
        <ele>263.06</ele>
        <time>2021-04-18T07:49:53Z</time>
      </trkpt>
      <trkpt lat="49.12633" lon="6.74068">
        <ele>263.06</ele>
        <time>2021-04-18T07:50:08Z</time>
      </trkpt>
      <trkpt lat="49.12625" lon="6.7405">
        <ele>265.94</ele>
        <time>2021-04-18T07:50:17Z</time>
      </trkpt>
      <trkpt lat="49.1262" lon="6.7403">
        <ele>265.46</ele>
        <time>2021-04-18T07:50:28Z</time>
      </trkpt>
      <trkpt lat="49.12616" lon="6.73996">
        <ele>268.83</ele>
        <time>2021-04-18T07:50:46Z</time>
      </trkpt>
      <trkpt lat="49.12609" lon="6.7398">
        <ele>271.23</ele>
        <time>2021-04-18T07:50:55Z</time>
      </trkpt>
      <trkpt lat="49.1259" lon="6.73952">
        <ele>270.75</ele>
        <time>2021-04-18T07:51:11Z</time>
      </trkpt>
      <trkpt lat="49.12576" lon="6.73939">
        <ele>273.63</ele>
        <time>2021-04-18T07:51:21Z</time>
      </trkpt>
      <trkpt lat="49.12569" lon="6.73933">
        <ele>274.11</ele>
        <time>2021-04-18T07:51:27Z</time>
      </trkpt>
      <trkpt lat="49.12564" lon="6.73928">
        <ele>275.56</ele>
        <time>2021-04-18T07:51:31Z</time>
      </trkpt>
      <trkpt lat="49.12552" lon="6.73909">
        <ele>277.96</ele>
        <time>2021-04-18T07:51:46Z</time>
      </trkpt>
      <trkpt lat="49.12522" lon="6.73891">
        <ele>280.84</ele>
        <time>2021-04-18T07:52:02Z</time>
      </trkpt>
      <trkpt lat="49.12519" lon="6.7389">
        <ele>282.77</ele>
        <time>2021-04-18T07:52:04Z</time>
      </trkpt>
      <trkpt lat="49.12517" lon="6.73888">
        <ele>279.4</ele>
        <time>2021-04-18T07:52:07Z</time>
      </trkpt>
      <trkpt lat="49.12516" lon="6.73887">
        <ele>283.73</ele>
        <time>2021-04-18T07:52:08Z</time>
      </trkpt>
      <trkpt lat="49.12515" lon="6.73885">
        <ele>280.36</ele>
        <time>2021-04-18T07:52:09Z</time>
      </trkpt>
      <trkpt lat="49.12514" lon="6.73884">
        <ele>284.69</ele>
        <time>2021-04-18T07:52:10Z</time>
      </trkpt>
      <trkpt lat="49.12513" lon="6.73883">
        <ele>281.8</ele>
        <time>2021-04-18T07:52:11Z</time>
      </trkpt>
      <trkpt lat="49.12507" lon="6.73877">
        <ele>285.17</ele>
        <time>2021-04-18T07:52:16Z</time>
      </trkpt>
      <trkpt lat="49.12493" lon="6.73858">
        <ele>287.09</ele>
        <time>2021-04-18T07:52:31Z</time>
      </trkpt>
      <trkpt lat="49.12476" lon="6.73843">
        <ele>290.46</ele>
        <time>2021-04-18T07:52:45Z</time>
      </trkpt>
      <trkpt lat="49.12466" lon="6.73819">
        <ele>292.38</ele>
        <time>2021-04-18T07:53:03Z</time>
      </trkpt>
      <trkpt lat="49.12465" lon="6.73809">
        <ele>296.7</ele>
        <time>2021-04-18T07:53:11Z</time>
      </trkpt>
      <trkpt lat="49.12465" lon="6.73807">
        <ele>292.38</ele>
        <time>2021-04-18T07:53:12Z</time>
      </trkpt>
      <trkpt lat="49.12465" lon="6.73804">
        <ele>296.7</ele>
        <time>2021-04-18T07:53:14Z</time>
      </trkpt>
      <trkpt lat="49.12465" lon="6.73801">
        <ele>293.82</ele>
        <time>2021-04-18T07:53:15Z</time>
      </trkpt>
      <trkpt lat="49.12463" lon="6.73792">
        <ele>298.15</ele>
        <time>2021-04-18T07:53:21Z</time>
      </trkpt>
      <trkpt lat="49.12459" lon="6.73761">
        <ele>301.03</ele>
        <time>2021-04-18T07:53:38Z</time>
      </trkpt>
      <trkpt lat="49.12456" lon="6.7374">
        <ele>304.39</ele>
        <time>2021-04-18T07:53:50Z</time>
      </trkpt>
      <trkpt lat="49.12454" lon="6.73733">
        <ele>301.03</ele>
        <time>2021-04-18T07:53:55Z</time>
      </trkpt>
      <trkpt lat="49.12453" lon="6.73731">
        <ele>306.32</ele>
        <time>2021-04-18T07:53:56Z</time>
      </trkpt>
      <trkpt lat="49.12453" lon="6.73729">
        <ele>302.47</ele>
        <time>2021-04-18T07:53:57Z</time>
      </trkpt>
      <trkpt lat="49.12452" lon="6.73728">
        <ele>306.8</ele>
        <time>2021-04-18T07:53:58Z</time>
      </trkpt>
      <trkpt lat="49.12449" lon="6.73718">
        <ele>303.43</ele>
        <time>2021-04-18T07:54:04Z</time>
      </trkpt>
      <trkpt lat="49.12448" lon="6.73715">
        <ele>307.28</ele>
        <time>2021-04-18T07:54:05Z</time>
      </trkpt>
      <trkpt lat="49.12427" lon="6.7369">
        <ele>307.28</ele>
        <time>2021-04-18T07:54:21Z</time>
      </trkpt>
      <trkpt lat="49.12423" lon="6.73692">
        <ele>306.8</ele>
        <time>2021-04-18T07:54:39Z</time>
      </trkpt>
      <trkpt lat="49.12422" lon="6.73693">
        <ele>306.8</ele>
        <time>2021-04-18T07:54:40Z</time>
      </trkpt>
      <trkpt lat="49.12404" lon="6.73717">
        <ele>307.76</ele>
        <time>2021-04-18T07:54:57Z</time>
      </trkpt>
      <trkpt lat="49.12397" lon="6.73727">
        <ele>305.36</ele>
        <time>2021-04-18T07:55:14Z</time>
      </trkpt>
      <trkpt lat="49.12381" lon="6.73749">
        <ele>306.8</ele>
        <time>2021-04-18T07:55:30Z</time>
      </trkpt>
      <trkpt lat="49.12364" lon="6.73776">
        <ele>309.68</ele>
        <time>2021-04-18T07:55:47Z</time>
      </trkpt>
      <trkpt lat="49.12358" lon="6.73787">
        <ele>309.68</ele>
        <time>2021-04-18T07:55:52Z</time>
      </trkpt>
      <trkpt lat="49.12345" lon="6.73816">
        <ele>312.57</ele>
        <time>2021-04-18T07:56:08Z</time>
      </trkpt>
      <trkpt lat="49.12334" lon="6.73844">
        <ele>316.41</ele>
        <time>2021-04-18T07:56:23Z</time>
      </trkpt>
      <trkpt lat="49.12319" lon="6.73881">
        <ele>318.33</ele>
        <time>2021-04-18T07:56:37Z</time>
      </trkpt>
      <trkpt lat="49.1231" lon="6.73903">
        <ele>319.3</ele>
        <time>2021-04-18T07:56:51Z</time>
      </trkpt>
      <trkpt lat="49.123" lon="6.73929">
        <ele>320.74</ele>
        <time>2021-04-18T07:57:08Z</time>
      </trkpt>
      <trkpt lat="49.1229" lon="6.73946">
        <ele>321.7</ele>
        <time>2021-04-18T07:57:22Z</time>
      </trkpt>
      <trkpt lat="49.12275" lon="6.73977">
        <ele>322.66</ele>
        <time>2021-04-18T07:57:38Z</time>
      </trkpt>
      <trkpt lat="49.12263" lon="6.74">
        <ele>324.1</ele>
        <time>2021-04-18T07:57:52Z</time>
      </trkpt>
      <trkpt lat="49.12259" lon="6.74008">
        <ele>322.18</ele>
        <time>2021-04-18T07:57:56Z</time>
      </trkpt>
      <trkpt lat="49.12247" lon="6.74036">
        <ele>322.66</ele>
        <time>2021-04-18T07:58:11Z</time>
      </trkpt>
      <trkpt lat="49.12237" lon="6.74057">
        <ele>321.7</ele>
        <time>2021-04-18T07:58:24Z</time>
      </trkpt>
      <trkpt lat="49.12233" lon="6.74066">
        <ele>324.58</ele>
        <time>2021-04-18T07:58:30Z</time>
      </trkpt>
      <trkpt lat="49.12219" lon="6.74108">
        <ele>324.1</ele>
        <time>2021-04-18T07:58:45Z</time>
      </trkpt>
      <trkpt lat="49.12212" lon="6.74132">
        <ele>326.99</ele>
        <time>2021-04-18T07:58:56Z</time>
      </trkpt>
      <trkpt lat="49.12204" lon="6.74155">
        <ele>328.43</ele>
        <time>2021-04-18T07:59:11Z</time>
      </trkpt>
      <trkpt lat="49.12203" lon="6.74157">
        <ele>331.79</ele>
        <time>2021-04-18T07:59:13Z</time>
      </trkpt>
      <trkpt lat="49.122" lon="6.74165">
        <ele>328.43</ele>
        <time>2021-04-18T07:59:19Z</time>
      </trkpt>
      <trkpt lat="49.12199" lon="6.74166">
        <ele>333.23</ele>
        <time>2021-04-18T07:59:20Z</time>
      </trkpt>
      <trkpt lat="49.12198" lon="6.74167">
        <ele>329.87</ele>
        <time>2021-04-18T07:59:21Z</time>
      </trkpt>
      <trkpt lat="49.12195" lon="6.74172">
        <ele>333.23</ele>
        <time>2021-04-18T07:59:25Z</time>
      </trkpt>
      <trkpt lat="49.12183" lon="6.74206">
        <ele>333.23</ele>
        <time>2021-04-18T07:59:42Z</time>
      </trkpt>
      <trkpt lat="49.12182" lon="6.74208">
        <ele>337.08</ele>
        <time>2021-04-18T07:59:43Z</time>
      </trkpt>
      <trkpt lat="49.12177" lon="6.74214">
        <ele>333.23</ele>
        <time>2021-04-18T07:59:49Z</time>
      </trkpt>
      <trkpt lat="49.12177" lon="6.74213">
        <ele>337.56</ele>
        <time>2021-04-18T07:59:50Z</time>
      </trkpt>
      <trkpt lat="49.12177" lon="6.74213">
        <ele>334.2</ele>
        <time>2021-04-18T07:59:51Z</time>
      </trkpt>
      <trkpt lat="49.12174" lon="6.74197">
        <ele>336.6</ele>
        <time>2021-04-18T08:00:03Z</time>
      </trkpt>
      <trkpt lat="49.1217" lon="6.74175">
        <ele>337.56</ele>
        <time>2021-04-18T08:00:17Z</time>
      </trkpt>
      <trkpt lat="49.12164" lon="6.74151">
        <ele>338.04</ele>
        <time>2021-04-18T08:00:30Z</time>
      </trkpt>
      <trkpt lat="49.12153" lon="6.74107">
        <ele>336.12</ele>
        <time>2021-04-18T08:00:47Z</time>
      </trkpt>
      <trkpt lat="49.12153" lon="6.74097">
        <ele>334.2</ele>
        <time>2021-04-18T08:00:51Z</time>
      </trkpt>
      <trkpt lat="49.12149" lon="6.74081">
        <ele>335.16</ele>
        <time>2021-04-18T08:01:01Z</time>
      </trkpt>
      <trkpt lat="49.12128" lon="6.74053">
        <ele>337.56</ele>
        <time>2021-04-18T08:01:20Z</time>
      </trkpt>
      <trkpt lat="49.12121" lon="6.74043">
        <ele>337.08</ele>
        <time>2021-04-18T08:01:26Z</time>
      </trkpt>
      <trkpt lat="49.12117" lon="6.74037">
        <ele>337.08</ele>
        <time>2021-04-18T08:01:29Z</time>
      </trkpt>
      <trkpt lat="49.12099" lon="6.74015">
        <ele>336.12</ele>
        <time>2021-04-18T08:01:41Z</time>
      </trkpt>
      <trkpt lat="49.12076" lon="6.74001">
        <ele>333.71</ele>
        <time>2021-04-18T08:01:58Z</time>
      </trkpt>
      <trkpt lat="49.12074" lon="6.74">
        <ele>333.71</ele>
        <time>2021-04-18T08:01:59Z</time>
      </trkpt>
      <trkpt lat="49.12057" lon="6.73981">
        <ele>334.2</ele>
        <time>2021-04-18T08:02:14Z</time>
      </trkpt>
      <trkpt lat="49.12042" lon="6.73959">
        <ele>333.71</ele>
        <time>2021-04-18T08:02:28Z</time>
      </trkpt>
      <trkpt lat="49.12025" lon="6.73934">
        <ele>331.79</ele>
        <time>2021-04-18T08:02:44Z</time>
      </trkpt>
      <trkpt lat="49.12013" lon="6.73915">
        <ele>332.27</ele>
        <time>2021-04-18T08:02:55Z</time>
      </trkpt>
      <trkpt lat="49.12005" lon="6.73892">
        <ele>331.79</ele>
        <time>2021-04-18T08:03:10Z</time>
      </trkpt>
      <trkpt lat="49.11984" lon="6.73869">
        <ele>329.87</ele>
        <time>2021-04-18T08:03:27Z</time>
      </trkpt>
      <trkpt lat="49.11967" lon="6.73842">
        <ele>328.91</ele>
        <time>2021-04-18T08:03:43Z</time>
      </trkpt>
      <trkpt lat="49.11948" lon="6.73831">
        <ele>330.35</ele>
        <time>2021-04-18T08:03:57Z</time>
      </trkpt>
      <trkpt lat="49.11946" lon="6.73831">
        <ele>329.39</ele>
        <time>2021-04-18T08:03:58Z</time>
      </trkpt>
      <trkpt lat="49.11916" lon="6.7382">
        <ele>329.39</ele>
        <time>2021-04-18T08:04:17Z</time>
      </trkpt>
      <trkpt lat="49.11894" lon="6.73804">
        <ele>330.35</ele>
        <time>2021-04-18T08:04:34Z</time>
      </trkpt>
      <trkpt lat="49.11888" lon="6.73796">
        <ele>329.39</ele>
        <time>2021-04-18T08:04:39Z</time>
      </trkpt>
      <trkpt lat="49.11884" lon="6.7379">
        <ele>330.35</ele>
        <time>2021-04-18T08:04:43Z</time>
      </trkpt>
      <trkpt lat="49.11867" lon="6.73766">
        <ele>330.35</ele>
        <time>2021-04-18T08:04:58Z</time>
      </trkpt>
      <trkpt lat="49.11851" lon="6.73744">
        <ele>329.39</ele>
        <time>2021-04-18T08:05:13Z</time>
      </trkpt>
      <trkpt lat="49.11845" lon="6.73737">
        <ele>329.39</ele>
        <time>2021-04-18T08:05:18Z</time>
      </trkpt>
      <trkpt lat="49.11835" lon="6.73729">
        <ele>328.43</ele>
        <time>2021-04-18T08:05:25Z</time>
      </trkpt>
      <trkpt lat="49.11817" lon="6.73714">
        <ele>328.91</ele>
        <time>2021-04-18T08:05:40Z</time>
      </trkpt>
      <trkpt lat="49.11792" lon="6.73701">
        <ele>329.39</ele>
        <time>2021-04-18T08:05:56Z</time>
      </trkpt>
      <trkpt lat="49.11772" lon="6.7369">
        <ele>329.39</ele>
        <time>2021-04-18T08:06:10Z</time>
      </trkpt>
      <trkpt lat="49.11758" lon="6.73673">
        <ele>327.47</ele>
        <time>2021-04-18T08:06:24Z</time>
      </trkpt>
      <trkpt lat="49.11753" lon="6.7367">
        <ele>327.95</ele>
        <time>2021-04-18T08:06:35Z</time>
      </trkpt>
      <trkpt lat="49.11735" lon="6.73671">
        <ele>329.39</ele>
        <time>2021-04-18T08:06:48Z</time>
      </trkpt>
      <trkpt lat="49.1172" lon="6.73646">
        <ele>328.91</ele>
        <time>2021-04-18T08:07:04Z</time>
      </trkpt>
      <trkpt lat="49.11712" lon="6.73637">
        <ele>326.99</ele>
        <time>2021-04-18T08:07:12Z</time>
      </trkpt>
      <trkpt lat="49.11691" lon="6.73615">
        <ele>326.02</ele>
        <time>2021-04-18T08:07:28Z</time>
      </trkpt>
      <trkpt lat="49.11674" lon="6.73602">
        <ele>326.5</ele>
        <time>2021-04-18T08:07:42Z</time>
      </trkpt>
      <trkpt lat="49.11651" lon="6.73594">
        <ele>326.5</ele>
        <time>2021-04-18T08:07:57Z</time>
      </trkpt>
      <trkpt lat="49.11623" lon="6.73587">
        <ele>325.54</ele>
        <time>2021-04-18T08:08:15Z</time>
      </trkpt>
      <trkpt lat="49.11606" lon="6.73576">
        <ele>323.62</ele>
        <time>2021-04-18T08:08:31Z</time>
      </trkpt>
      <trkpt lat="49.11602" lon="6.73575">
        <ele>323.62</ele>
        <time>2021-04-18T08:08:34Z</time>
      </trkpt>
      <trkpt lat="49.1158" lon="6.73569">
        <ele>321.22</ele>
        <time>2021-04-18T08:08:47Z</time>
      </trkpt>
      <trkpt lat="49.11561" lon="6.73561">
        <ele>320.26</ele>
        <time>2021-04-18T08:09:02Z</time>
      </trkpt>
      <trkpt lat="49.1154" lon="6.73553">
        <ele>318.81</ele>
        <time>2021-04-18T08:09:16Z</time>
      </trkpt>
      <trkpt lat="49.11528" lon="6.73551">
        <ele>318.81</ele>
        <time>2021-04-18T08:09:24Z</time>
      </trkpt>
      <trkpt lat="49.11525" lon="6.73549">
        <ele>318.33</ele>
        <time>2021-04-18T08:09:27Z</time>
      </trkpt>
      <trkpt lat="49.11498" lon="6.73538">
        <ele>316.89</ele>
        <time>2021-04-18T08:09:46Z</time>
      </trkpt>
      <trkpt lat="49.11472" lon="6.73524">
        <ele>316.41</ele>
        <time>2021-04-18T08:10:06Z</time>
      </trkpt>
      <trkpt lat="49.11449" lon="6.73518">
        <ele>314.49</ele>
        <time>2021-04-18T08:10:21Z</time>
      </trkpt>
      <trkpt lat="49.11429" lon="6.7351">
        <ele>312.09</ele>
        <time>2021-04-18T08:10:36Z</time>
      </trkpt>
      <trkpt lat="49.11416" lon="6.73503">
        <ele>308.72</ele>
        <time>2021-04-18T08:10:46Z</time>
      </trkpt>
      <trkpt lat="49.11404" lon="6.73499">
        <ele>306.32</ele>
        <time>2021-04-18T08:10:56Z</time>
      </trkpt>
      <trkpt lat="49.11381" lon="6.73488">
        <ele>304.88</ele>
        <time>2021-04-18T08:11:13Z</time>
      </trkpt>
      <trkpt lat="49.1136" lon="6.7348">
        <ele>301.99</ele>
        <time>2021-04-18T08:11:28Z</time>
      </trkpt>
      <trkpt lat="49.11344" lon="6.73474">
        <ele>300.55</ele>
        <time>2021-04-18T08:11:38Z</time>
      </trkpt>
      <trkpt lat="49.11329" lon="6.7347">
        <ele>297.18</ele>
        <time>2021-04-18T08:11:49Z</time>
      </trkpt>
      <trkpt lat="49.1132" lon="6.73466">
        <ele>294.78</ele>
        <time>2021-04-18T08:11:56Z</time>
      </trkpt>
      <trkpt lat="49.11315" lon="6.73461">
        <ele>291.42</ele>
        <time>2021-04-18T08:12:01Z</time>
      </trkpt>
      <trkpt lat="49.11313" lon="6.73459">
        <ele>294.78</ele>
        <time>2021-04-18T08:12:03Z</time>
      </trkpt>
      <trkpt lat="49.11312" lon="6.73459">
        <ele>294.78</ele>
        <time>2021-04-18T08:12:04Z</time>
      </trkpt>
      <trkpt lat="49.1131" lon="6.73457">
        <ele>292.38</ele>
        <time>2021-04-18T08:12:06Z</time>
      </trkpt>
      <trkpt lat="49.11306" lon="6.73456">
        <ele>290.94</ele>
        <time>2021-04-18T08:12:31Z</time>
      </trkpt>
      <trkpt lat="49.11304" lon="6.73456">
        <ele>289.01</ele>
        <time>2021-04-18T08:12:32Z</time>
      </trkpt>
      <trkpt lat="49.1129" lon="6.73456">
        <ele>286.13</ele>
        <time>2021-04-18T08:12:42Z</time>
      </trkpt>
      <trkpt lat="49.11289" lon="6.73456">
        <ele>289.49</ele>
        <time>2021-04-18T08:12:43Z</time>
      </trkpt>
      <trkpt lat="49.11286" lon="6.73454">
        <ele>285.65</ele>
        <time>2021-04-18T08:12:45Z</time>
      </trkpt>
      <trkpt lat="49.11284" lon="6.73454">
        <ele>286.61</ele>
        <time>2021-04-18T08:12:46Z</time>
      </trkpt>
      <trkpt lat="49.1128" lon="6.73454">
        <ele>284.69</ele>
        <time>2021-04-18T08:12:49Z</time>
      </trkpt>
      <trkpt lat="49.1127" lon="6.73446">
        <ele>281.32</ele>
        <time>2021-04-18T08:12:57Z</time>
      </trkpt>
      <trkpt lat="49.1127" lon="6.73444">
        <ele>281.8</ele>
        <time>2021-04-18T08:12:58Z</time>
      </trkpt>
      <trkpt lat="49.11274" lon="6.7342">
        <ele>281.32</ele>
        <time>2021-04-18T08:13:14Z</time>
      </trkpt>
      <trkpt lat="49.11272" lon="6.734">
        <ele>279.88</ele>
        <time>2021-04-18T08:13:22Z</time>
      </trkpt>
      <trkpt lat="49.11267" lon="6.73382">
        <ele>277.96</ele>
        <time>2021-04-18T08:13:29Z</time>
      </trkpt>
      <trkpt lat="49.11259" lon="6.73353">
        <ele>273.15</ele>
        <time>2021-04-18T08:13:39Z</time>
      </trkpt>
      <trkpt lat="49.11253" lon="6.73331">
        <ele>269.79</ele>
        <time>2021-04-18T08:13:49Z</time>
      </trkpt>
      <trkpt lat="49.11245" lon="6.73311">
        <ele>265.94</ele>
        <time>2021-04-18T08:14:00Z</time>
      </trkpt>
      <trkpt lat="49.11245" lon="6.73309">
        <ele>266.42</ele>
        <time>2021-04-18T08:14:01Z</time>
      </trkpt>
      <trkpt lat="49.11244" lon="6.73307">
        <ele>266.42</ele>
        <time>2021-04-18T08:14:02Z</time>
      </trkpt>
      <trkpt lat="49.11244" lon="6.73304">
        <ele>266.42</ele>
        <time>2021-04-18T08:14:04Z</time>
      </trkpt>
      <trkpt lat="49.11243" lon="6.733">
        <ele>264.98</ele>
        <time>2021-04-18T08:14:06Z</time>
      </trkpt>
      <trkpt lat="49.11237" lon="6.73288">
        <ele>262.1</ele>
        <time>2021-04-18T08:14:13Z</time>
      </trkpt>
      <trkpt lat="49.11236" lon="6.73286">
        <ele>261.62</ele>
        <time>2021-04-18T08:14:14Z</time>
      </trkpt>
      <trkpt lat="49.11234" lon="6.73281">
        <ele>261.14</ele>
        <time>2021-04-18T08:14:18Z</time>
      </trkpt>
      <trkpt lat="49.11229" lon="6.73271">
        <ele>258.25</ele>
        <time>2021-04-18T08:14:24Z</time>
      </trkpt>
      <trkpt lat="49.11218" lon="6.73271">
        <ele>255.85</ele>
        <time>2021-04-18T08:14:33Z</time>
      </trkpt>
      <trkpt lat="49.11193" lon="6.73276">
        <ele>252.96</ele>
        <time>2021-04-18T08:14:47Z</time>
      </trkpt>
      <trkpt lat="49.11191" lon="6.73276">
        <ele>252.96</ele>
        <time>2021-04-18T08:14:48Z</time>
      </trkpt>
      <trkpt lat="49.11171" lon="6.73286">
        <ele>251.04</ele>
        <time>2021-04-18T08:15:01Z</time>
      </trkpt>
      <trkpt lat="49.11155" lon="6.73291">
        <ele>247.68</ele>
        <time>2021-04-18T08:15:12Z</time>
      </trkpt>
      <trkpt lat="49.11153" lon="6.73291">
        <ele>249.12</ele>
        <time>2021-04-18T08:15:13Z</time>
      </trkpt>
      <trkpt lat="49.11134" lon="6.73299">
        <ele>246.23</ele>
        <time>2021-04-18T08:15:29Z</time>
      </trkpt>
      <trkpt lat="49.11122" lon="6.73303">
        <ele>242.87</ele>
        <time>2021-04-18T08:15:39Z</time>
      </trkpt>
      <trkpt lat="49.11121" lon="6.73303">
        <ele>242.87</ele>
        <time>2021-04-18T08:15:40Z</time>
      </trkpt>
      <trkpt lat="49.11106" lon="6.73301">
        <ele>239.51</ele>
        <time>2021-04-18T08:15:51Z</time>
      </trkpt>
      <trkpt lat="49.11098" lon="6.73303">
        <ele>237.1</ele>
        <time>2021-04-18T08:15:57Z</time>
      </trkpt>
      <trkpt lat="49.11092" lon="6.73304">
        <ele>235.66</ele>
        <time>2021-04-18T08:16:02Z</time>
      </trkpt>
      <trkpt lat="49.1108" lon="6.73307">
        <ele>232.78</ele>
        <time>2021-04-18T08:16:10Z</time>
      </trkpt>
      <trkpt lat="49.11065" lon="6.73309">
        <ele>230.37</ele>
        <time>2021-04-18T08:16:24Z</time>
      </trkpt>
      <trkpt lat="49.11041" lon="6.73305">
        <ele>228.93</ele>
        <time>2021-04-18T08:16:41Z</time>
      </trkpt>
      <trkpt lat="49.11037" lon="6.73305">
        <ele>227.49</ele>
        <time>2021-04-18T08:16:44Z</time>
      </trkpt>
      <trkpt lat="49.11019" lon="6.73334">
        <ele>226.53</ele>
        <time>2021-04-18T08:17:02Z</time>
      </trkpt>
      <trkpt lat="49.10999" lon="6.73364">
        <ele>226.53</ele>
        <time>2021-04-18T08:17:21Z</time>
      </trkpt>
      <trkpt lat="49.10974" lon="6.73378">
        <ele>225.57</ele>
        <time>2021-04-18T08:17:40Z</time>
      </trkpt>
      <trkpt lat="49.10939" lon="6.73382">
        <ele>227.01</ele>
        <time>2021-04-18T08:18:04Z</time>
      </trkpt>
      <trkpt lat="49.10924" lon="6.73384">
        <ele>223.16</ele>
        <time>2021-04-18T08:18:14Z</time>
      </trkpt>
      <trkpt lat="49.10923" lon="6.73384">
        <ele>227.01</ele>
        <time>2021-04-18T08:18:15Z</time>
      </trkpt>
      <trkpt lat="49.10921" lon="6.73384">
        <ele>227.49</ele>
        <time>2021-04-18T08:18:16Z</time>
      </trkpt>
      <trkpt lat="49.10919" lon="6.73384">
        <ele>225.57</ele>
        <time>2021-04-18T08:18:18Z</time>
      </trkpt>
      <trkpt lat="49.10896" lon="6.73385">
        <ele>225.09</ele>
        <time>2021-04-18T08:18:34Z</time>
      </trkpt>
      <trkpt lat="49.10886" lon="6.73382">
        <ele>228.45</ele>
        <time>2021-04-18T08:18:43Z</time>
      </trkpt>
      <trkpt lat="49.10877" lon="6.73381">
        <ele>226.53</ele>
        <time>2021-04-18T08:18:56Z</time>
      </trkpt>
      <trkpt lat="49.10863" lon="6.73375">
        <ele>223.64</ele>
        <time>2021-04-18T08:19:13Z</time>
      </trkpt>
      <trkpt lat="49.10863" lon="6.73376">
        <ele>227.01</ele>
        <time>2021-04-18T08:19:14Z</time>
      </trkpt>
      <trkpt lat="49.10864" lon="6.73375">
        <ele>226.53</ele>
        <time>2021-04-18T08:19:30Z</time>
      </trkpt>
    </trkseg>
  </trk>
</gpx>